createdAt,value
2022-11-27T00:12:56.618Z,-0.40
2022-11-27T00:13:59.529Z,-0.50
2022-11-27T00:15:02.844Z,-0.45
2022-11-27T00:16:05.497Z,-0.41
2022-11-27T00:17:07.522Z,-0.35
2022-11-27T00:18:09.382Z,-0.37
2022-11-27T00:19:11.978Z,-0.31
2022-11-27T00:20:14.137Z,-0.32
2022-11-27T00:21:19.667Z,-0.27
2022-11-27T00:22:21.593Z,-0.28
2022-11-27T00:23:23.544Z,-0.27
2022-11-27T00:24:25.442Z,-0.25
2022-11-27T00:25:27.820Z,-0.34
2022-11-27T00:26:35.937Z,-0.26
2022-11-27T00:27:34.721Z,-0.32
2022-11-27T00:28:37.638Z,-0.26
2022-11-27T00:29:39.522Z,-0.31
2022-11-27T00:30:41.691Z,-0.33
2022-11-27T00:31:43.689Z,-0.37
2022-11-27T00:32:45.773Z,-0.34
2022-11-27T00:33:48.516Z,-0.26
2022-11-27T00:34:50.664Z,-0.28
2022-11-27T00:35:52.513Z,-0.25
2022-11-27T00:36:54.493Z,-0.29
2022-11-27T00:37:56.381Z,-0.18
2022-11-27T00:38:59.259Z,-0.17
2022-11-27T00:40:01.840Z,-0.14
2022-11-27T00:41:10.212Z,-0.11
2022-11-27T00:42:12.137Z,-0.09
2022-11-27T00:43:13.988Z,-0.05
2022-11-27T00:44:16.147Z,-0.01
2022-11-27T00:45:18.023Z,0.02
2022-11-27T00:46:29.497Z,-0.04
2022-11-27T00:47:31.681Z,-0.05
2022-11-27T00:48:34.358Z,-0.06
2022-11-27T00:49:36.222Z,-0.08
2022-11-27T00:50:38.181Z,-0.04
2022-11-27T00:51:40.044Z,-0.06
2022-11-27T00:52:42.090Z,-0.17
2022-11-27T00:53:45.174Z,0.00
2022-11-27T00:54:47.137Z,0.05
2022-11-27T00:55:49.083Z,0.02
2022-11-27T00:56:51.042Z,0.05
2022-11-27T00:57:53.057Z,0.09
2022-11-27T00:58:56.016Z,0.00
2022-11-27T00:59:57.875Z,-0.04
2022-11-27T01:01:03.083Z,-0.10
2022-11-27T01:02:05.087Z,-0.08
2022-11-27T01:03:09.001Z,-0.06
2022-11-27T01:04:13.876Z,-0.05
2022-11-27T01:05:15.959Z,-0.07
2022-11-27T01:06:21.150Z,-0.03
2022-11-27T01:07:23.220Z,0.02
2022-11-27T01:08:25.141Z,-0.08
2022-11-27T01:09:27.018Z,0.00
2022-11-27T01:10:29.408Z,0.07
2022-11-27T01:11:33.377Z,0.14
2022-11-27T01:12:35.264Z,0.03
2022-11-27T01:13:37.194Z,0.15
2022-11-27T01:14:39.413Z,0.16
2022-11-27T01:15:42.163Z,0.07
2022-11-27T01:16:44.624Z,0.15
2022-11-27T01:17:46.494Z,0.08
2022-11-27T01:18:50.096Z,0.08
2022-11-27T01:19:52.012Z,0.18
2022-11-27T01:20:54.886Z,0.01
2022-11-27T01:21:56.828Z,0.10
2022-11-27T01:22:58.673Z,0.10
2022-11-27T01:24:02.363Z,0.03
2022-11-27T01:25:05.514Z,0.10
2022-11-27T01:26:10.059Z,-0.04
2022-11-27T01:27:11.946Z,0.13
2022-11-27T01:28:16.255Z,0.12
2022-11-27T01:29:18.166Z,0.04
2022-11-27T01:30:20.211Z,0.07
2022-11-27T01:31:26.762Z,-0.06
2022-11-27T01:32:28.746Z,0.14
2022-11-27T01:33:30.596Z,0.04
2022-11-27T01:34:32.451Z,-0.02
2022-11-27T01:35:34.304Z,0.01
2022-11-27T01:36:36.373Z,-0.01
2022-11-27T01:37:38.927Z,0.07
2022-11-27T01:38:41.611Z,0.09
2022-11-27T01:39:43.461Z,-0.05
2022-11-27T01:40:45.453Z,-0.02
2022-11-27T01:41:48.409Z,-0.03
2022-11-27T01:42:52.381Z,0.02
2022-11-27T01:44:00.126Z,-0.02
2022-11-27T01:45:02.425Z,0.06
2022-11-27T01:46:07.262Z,0.11
2022-11-27T01:47:13.226Z,0.04
2022-11-27T01:48:15.965Z,-0.01
2022-11-27T01:49:27.443Z,0.05
2022-11-27T01:50:36.384Z,-0.01
2022-11-27T01:51:48.080Z,0.02
2022-11-27T01:52:54.805Z,0.05
2022-11-27T01:53:57.220Z,0.14
2022-11-27T01:55:05.645Z,0.15
2022-11-27T01:56:09.347Z,0.14
2022-11-27T01:57:17.696Z,0.17
2022-11-27T01:58:23.924Z,0.18
2022-11-27T01:59:25.958Z,0.09
2022-11-27T02:00:29.056Z,0.07
2022-11-27T02:01:31.268Z,0.21
2022-11-27T02:02:33.239Z,0.12
2022-11-27T02:03:35.615Z,0.07
2022-11-27T02:04:37.793Z,-0.05
2022-11-27T02:05:39.820Z,0.06
2022-11-27T02:06:41.778Z,0.05
2022-11-27T02:07:45.245Z,0.13
2022-11-27T02:08:47.635Z,0.09
2022-11-27T02:09:49.812Z,0.11
2022-11-27T02:11:01.604Z,0.07
2022-11-27T02:12:19.371Z,0.11
2022-11-27T02:13:39.911Z,0.09
2022-11-27T06:35:34.149Z,-0.50
2022-11-27T06:37:47.837Z,-0.54
2022-11-27T06:38:50.747Z,-0.64
2022-11-27T06:39:52.626Z,-0.62
2022-11-27T06:40:54.591Z,-0.59
2022-11-27T06:41:57.223Z,-0.58
2022-11-27T06:42:59.217Z,-0.50
2022-11-27T06:44:01.628Z,-0.56
2022-11-27T06:45:04.534Z,-0.65
2022-11-27T06:46:09.112Z,-0.63
2022-11-27T06:47:11.145Z,-0.52
2022-11-27T06:48:13.060Z,-0.55
2022-11-27T06:49:15.091Z,-0.51
2022-11-27T06:50:17.138Z,-0.58
2022-11-27T06:51:22.325Z,-0.53
2022-11-27T06:52:24.227Z,-0.41
2022-11-27T06:53:26.159Z,-0.41
2022-11-27T06:54:28.116Z,-0.46
2022-11-27T06:55:29.968Z,-0.42
2022-11-27T06:56:32.291Z,-0.39
2022-11-27T06:57:34.147Z,-0.44
2022-11-27T06:58:37.353Z,-0.39
2022-11-27T06:59:39.247Z,-0.37
2022-11-27T07:00:41.839Z,-0.33
2022-11-27T07:01:44.524Z,-0.35
2022-11-27T07:02:46.497Z,-0.32
2022-11-27T07:03:49.590Z,-0.32
2022-11-27T07:04:51.470Z,-0.28
2022-11-27T07:05:54.033Z,-0.24
2022-11-27T07:06:56.576Z,-0.23
2022-11-27T07:07:58.493Z,-0.24
2022-11-27T07:09:00.793Z,-0.31
2022-11-27T07:10:03.773Z,-0.30
2022-11-27T07:11:09.365Z,-0.24
2022-11-27T07:12:11.299Z,-0.16
2022-11-27T07:13:13.484Z,-0.22
2022-11-27T07:14:15.551Z,-0.16
2022-11-27T07:15:17.418Z,-0.14
2022-11-27T07:16:19.495Z,-0.20
2022-11-27T07:17:21.470Z,-0.15
2022-11-27T07:18:23.348Z,-0.15
2022-11-27T07:19:25.212Z,-0.12
2022-11-27T07:20:27.270Z,-0.08
2022-11-27T07:21:30.466Z,-0.14
2022-11-27T07:22:32.771Z,-0.09
2022-11-27T07:23:35.805Z,-0.03
2022-11-27T07:24:37.979Z,-0.06
2022-11-27T07:25:40.125Z,-0.08
2022-11-27T07:26:42.402Z,0.01
2022-11-27T07:27:44.621Z,0.08
2022-11-27T07:28:47.917Z,-0.01
2022-11-27T07:29:49.821Z,-0.18
2022-11-27T07:30:56.166Z,-0.09
2022-11-27T07:31:58.093Z,-0.05
2022-11-27T07:33:01.873Z,0.01
2022-11-27T07:34:06.919Z,0.05
2022-11-27T07:35:10.924Z,0.05
2022-11-27T07:36:21.349Z,0.11
2022-11-27T07:37:23.311Z,0.15
2022-11-27T07:38:25.476Z,0.15
2022-11-27T07:39:54.001Z,0.06
2022-11-27T07:40:31.565Z,0.11
2022-11-27T07:41:34.257Z,0.17
2022-11-27T07:42:38.794Z,0.15
2022-11-27T07:43:41.955Z,0.19
2022-11-27T07:44:44.371Z,0.21
2022-11-27T07:45:46.286Z,0.20
2022-11-27T07:46:48.432Z,0.25
2022-11-27T07:47:50.399Z,0.25
2022-11-27T07:48:52.252Z,0.26
2022-11-27T07:49:54.139Z,0.26
2022-11-27T07:50:56.242Z,0.29
2022-11-27T07:51:58.402Z,0.29
2022-11-27T07:53:00.299Z,0.31
2022-11-27T07:54:02.233Z,0.28
2022-11-27T07:55:05.139Z,0.31
2022-11-27T07:56:11.008Z,0.32
2022-11-27T07:57:13.012Z,0.35
2022-11-27T07:58:15.980Z,0.32
2022-11-27T07:59:20.645Z,0.36
2022-11-27T08:00:22.805Z,0.35
2022-11-27T08:01:24.796Z,0.37
2022-11-27T08:02:26.855Z,0.43
2022-11-27T08:03:28.709Z,0.48
2022-11-27T08:04:30.892Z,0.49
2022-11-27T08:05:34.142Z,0.45
2022-11-27T08:06:36.117Z,0.38
2022-11-27T08:07:38.053Z,0.32
2022-11-27T08:08:40.101Z,0.35
2022-11-27T08:09:41.967Z,0.39
2022-11-27T08:10:43.948Z,0.34
2022-11-27T08:11:45.833Z,0.31
2022-11-27T08:12:48.136Z,0.46
2022-11-27T08:13:52.477Z,0.49
2022-11-27T08:14:54.400Z,0.30
2022-11-27T08:15:58.703Z,0.29
2022-11-27T08:17:00.949Z,0.21
2022-11-27T08:18:03.201Z,0.23
2022-11-27T08:19:05.245Z,0.28
2022-11-27T08:20:07.659Z,0.40
2022-11-27T08:21:09.527Z,0.43
2022-11-27T08:22:15.196Z,0.48
2022-11-27T08:23:17.381Z,0.46
2022-11-27T08:24:19.291Z,0.48
2022-11-27T08:25:21.158Z,0.49
2022-11-27T08:26:23.222Z,0.43
2022-11-27T08:27:25.066Z,0.43
2022-11-27T08:28:27.000Z,0.51
2022-11-27T08:29:33.799Z,0.35
2022-11-27T08:30:32.760Z,0.28
2022-11-27T08:31:34.692Z,0.44
2022-11-27T08:32:42.963Z,0.47
2022-11-27T08:33:45.817Z,0.48
2022-11-27T08:34:47.693Z,0.48
2022-11-27T08:35:52.059Z,0.53
2022-11-27T08:36:55.163Z,0.44
2022-11-27T08:37:57.058Z,0.27
2022-11-27T08:38:59.083Z,0.31
2022-11-27T08:40:01.587Z,0.30
2022-11-27T08:41:06.652Z,0.16
2022-11-27T08:42:08.698Z,0.15
2022-11-27T08:43:11.806Z,0.30
2022-11-27T08:44:13.878Z,0.36
2022-11-27T08:45:15.814Z,0.39
2022-11-27T08:46:18.000Z,0.38
2022-11-27T08:47:20.009Z,0.34
2022-11-27T08:48:22.902Z,0.39
2022-11-27T08:49:24.767Z,0.36
2022-11-27T08:50:26.730Z,0.36
2022-11-27T08:51:28.732Z,0.25
2022-11-27T08:52:31.720Z,0.33
2022-11-27T08:53:34.107Z,0.40
2022-11-27T08:54:36.111Z,0.50
2022-11-27T08:55:38.076Z,0.47
2022-11-27T08:56:40.028Z,0.52
2022-11-27T08:57:42.134Z,0.56
2022-11-27T08:58:45.030Z,0.30
2022-11-27T08:59:46.914Z,0.27
2022-11-27T09:00:49.048Z,0.34
2022-11-27T09:01:51.302Z,0.07
2022-11-27T09:02:53.261Z,0.20
2022-11-27T09:03:57.069Z,0.20
2022-11-27T09:05:00.608Z,0.34
2022-11-27T09:06:08.809Z,0.34
2022-11-27T09:07:10.983Z,0.35
2022-11-27T09:08:12.885Z,0.46
2022-11-27T09:09:14.878Z,0.50
2022-11-27T09:10:17.563Z,0.52
2022-11-27T09:11:20.246Z,0.54
2022-11-27T09:12:22.336Z,0.54
2022-11-27T09:13:24.373Z,0.54
2022-11-27T09:14:26.294Z,0.55
2022-11-27T09:15:28.151Z,0.58
2022-11-27T09:16:31.518Z,0.59
2022-11-27T09:17:33.697Z,0.63
2022-11-27T09:18:36.760Z,0.62
2022-11-27T09:19:38.807Z,0.65
2022-11-27T09:20:41.011Z,0.57
2022-11-27T09:21:43.051Z,0.57
2022-11-27T09:22:44.922Z,0.45
2022-11-27T09:23:47.112Z,0.47
2022-11-27T09:24:49.093Z,0.31
2022-11-27T09:25:50.944Z,0.44
2022-11-27T09:26:52.953Z,0.45
2022-11-27T09:27:54.864Z,0.53
2022-11-27T09:28:58.199Z,0.56
2022-11-27T09:30:00.076Z,0.58
2022-11-27T09:31:03.988Z,0.44
2022-11-27T09:32:06.130Z,0.47
2022-11-27T09:33:08.253Z,0.50
2022-11-27T09:34:10.252Z,0.48
2022-11-27T09:35:12.219Z,0.57
2022-11-27T09:36:20.578Z,0.57
2022-11-27T09:37:22.729Z,0.61
2022-11-27T09:38:24.621Z,0.34
2022-11-27T09:39:28.877Z,0.47
2022-11-27T09:40:30.890Z,0.48
2022-11-27T09:41:45.686Z,0.50
2022-11-27T09:43:00.722Z,0.52
2022-11-27T09:44:07.425Z,0.61
2022-11-27T09:45:14.879Z,0.59
2022-11-27T09:46:31.355Z,0.50
2022-11-27T09:47:41.748Z,0.50
2022-11-27T09:48:48.992Z,0.53
2022-11-27T09:50:01.390Z,0.51
2022-11-27T09:51:13.320Z,0.30
2022-11-27T09:52:25.468Z,0.42
2022-11-27T09:53:33.846Z,0.31
2022-11-27T09:54:40.069Z,0.47
2022-11-27T09:55:46.174Z,0.51
2022-11-27T09:56:52.064Z,0.45
2022-11-27T09:59:09.381Z,0.69
2022-11-27T10:00:15.358Z,0.54
2022-11-27T10:01:21.047Z,0.47
2022-11-27T10:02:29.998Z,0.58
2022-11-27T10:03:32.615Z,0.42
2022-11-27T10:04:57.832Z,0.53
2022-11-27T10:05:50.984Z,0.53
2022-11-27T10:07:14.145Z,0.47
2022-11-27T10:08:28.732Z,0.40
2022-11-27T10:09:43.708Z,0.30
2022-11-27T10:11:13.842Z,0.38
2022-11-27T10:12:22.596Z,0.30
2022-11-27T10:13:28.376Z,0.42
2022-11-27T10:14:56.967Z,0.46
2022-11-27T10:16:02.693Z,0.46
2022-11-27T10:17:27.037Z,0.48
2022-11-27T10:18:35.769Z,0.57
2022-11-27T10:19:49.961Z,0.54
2022-11-27T10:20:58.824Z,0.60
2022-11-27T10:22:11.025Z,0.61
2022-11-27T10:23:42.508Z,0.51
2022-11-27T10:24:56.985Z,0.57
2022-11-27T10:26:02.676Z,0.33
2022-11-27T10:28:33.960Z,0.70
2022-11-27T14:11:18.570Z,-0.43
2022-11-27T14:12:27.768Z,-0.53
2022-11-27T14:13:36.266Z,-0.52
2022-11-27T14:14:41.202Z,-0.49
2022-11-27T14:15:45.783Z,-0.45
2022-11-27T14:17:02.301Z,-0.45
2022-11-27T14:18:19.683Z,-0.46
2022-11-27T14:20:51.107Z,-0.30
2022-11-27T14:21:53.553Z,-0.37
2022-11-27T14:23:14.260Z,-0.40
2022-11-27T14:24:03.050Z,-0.52
2022-11-27T14:25:20.543Z,-0.43
2022-11-27T14:26:24.806Z,-0.41
2022-11-27T14:27:30.499Z,-0.41
2022-11-27T14:28:36.885Z,-0.35
2022-11-27T14:29:39.046Z,-0.34
2022-11-27T14:30:47.674Z,-0.32
2022-11-27T14:31:59.499Z,-0.30
2022-11-27T14:33:07.428Z,-0.33
2022-11-27T14:35:36.700Z,-0.20
2022-11-27T14:36:38.675Z,-0.31
2022-11-27T14:37:40.550Z,-0.28
2022-11-27T14:38:45.832Z,-0.30
2022-11-27T14:39:47.773Z,-0.33
2022-11-27T14:40:51.806Z,-0.45
2022-11-27T14:42:02.363Z,-0.41
2022-11-27T14:43:10.149Z,-0.37
2022-11-27T14:44:14.827Z,-0.44
2022-11-27T14:45:20.314Z,-0.40
2022-11-27T14:46:22.392Z,-0.35
2022-11-27T14:47:26.794Z,-0.41
2022-11-27T14:48:32.448Z,-0.38
2022-11-27T14:49:35.614Z,-0.34
2022-11-27T14:50:37.584Z,-0.27
2022-11-27T14:51:39.593Z,-0.28
2022-11-27T14:52:44.354Z,-0.27
2022-11-27T14:53:48.982Z,-0.24
2022-11-27T14:54:52.424Z,-0.29
2022-11-27T14:55:57.243Z,-0.17
2022-11-27T14:56:59.731Z,-0.24
2022-11-27T14:58:02.133Z,-0.20
2022-11-27T14:59:04.088Z,-0.21
2022-11-27T15:00:22.340Z,-0.18
2022-11-27T15:01:27.455Z,-0.17
2022-11-27T15:02:29.696Z,-0.15
2022-11-27T15:03:33.529Z,-0.16
2022-11-27T15:04:38.458Z,-0.15
2022-11-27T15:05:42.365Z,-0.15
2022-11-27T15:06:46.078Z,-0.11
2022-11-27T15:07:51.195Z,-0.19
2022-11-27T15:09:15.981Z,-0.23
2022-11-27T15:10:00.903Z,-0.32
2022-11-27T15:11:04.653Z,-0.39
2022-11-27T15:12:19.369Z,-0.31
2022-11-27T15:13:24.510Z,-0.34
2022-11-27T15:14:28.312Z,-0.37
2022-11-27T15:15:33.952Z,-0.25
2022-11-27T15:16:36.242Z,-0.22
2022-11-27T15:17:41.978Z,-0.14
2022-11-27T15:18:50.617Z,-0.12
2022-11-27T15:19:54.245Z,-0.13
2022-11-27T15:20:59.160Z,-0.15
2022-11-27T15:22:01.952Z,-0.10
2022-11-27T15:23:13.380Z,-0.09
2022-11-27T15:24:32.092Z,-0.10
2022-11-27T15:25:44.145Z,-0.10
2022-11-27T15:26:46.134Z,-0.09
2022-11-27T15:27:48.018Z,-0.09
2022-11-27T15:28:52.839Z,-0.10
2022-11-27T15:30:01.508Z,-0.04
2022-11-27T15:31:26.037Z,-0.07
2022-11-27T15:32:35.615Z,-0.04
2022-11-27T15:33:37.647Z,-0.06
2022-11-27T15:34:39.942Z,-0.06
2022-11-27T15:35:42.315Z,-0.07
2022-11-27T15:36:57.059Z,-0.11
2022-11-27T15:37:59.799Z,-0.15
2022-11-27T15:40:25.121Z,0.06
2022-11-27T15:41:28.784Z,-0.07
2022-11-27T15:42:30.725Z,-0.09
2022-11-27T15:43:32.679Z,-0.05
2022-11-27T15:44:34.576Z,-0.05
2022-11-27T15:45:36.905Z,-0.06
2022-11-27T15:46:41.502Z,0.00
2022-11-27T15:47:44.369Z,-0.06
2022-11-27T15:48:46.248Z,-0.06
2022-11-27T15:49:48.227Z,-0.02
2022-11-27T15:50:52.030Z,-0.04
2022-11-27T15:51:55.563Z,0.01
2022-11-27T15:52:57.845Z,-0.03
2022-11-27T15:54:01.943Z,0.05
2022-11-27T15:55:04.956Z,0.08
2022-11-27T15:56:07.470Z,0.10
2022-11-27T15:57:09.531Z,0.11
2022-11-27T15:58:11.489Z,0.13
2022-11-27T15:59:14.389Z,0.04
2022-11-27T16:00:18.233Z,0.05
2022-11-27T16:01:20.325Z,0.10
2022-11-27T16:02:22.371Z,-0.05
2022-11-27T16:03:24.578Z,0.03
2022-11-27T16:04:26.900Z,0.04
2022-11-27T16:05:28.811Z,0.11
2022-11-27T16:06:31.063Z,0.06
2022-11-27T16:07:34.061Z,0.06
2022-11-27T16:08:36.236Z,0.07
2022-11-27T16:09:38.099Z,0.06
2022-11-27T16:10:42.420Z,0.07
2022-11-27T16:11:45.200Z,0.01
2022-11-27T16:12:47.072Z,0.05
2022-11-27T16:13:48.974Z,0.05
2022-11-27T16:14:50.852Z,0.09
2022-11-27T16:15:52.739Z,0.14
2022-11-27T16:16:55.016Z,0.11
2022-11-27T16:17:57.311Z,0.09
2022-11-27T16:19:00.861Z,0.15
2022-11-27T16:20:04.884Z,0.11
2022-11-27T16:21:12.720Z,0.14
2022-11-27T16:22:14.693Z,0.10
2022-11-27T16:23:16.842Z,0.14
2022-11-27T16:24:19.318Z,0.14
2022-11-27T16:25:22.538Z,0.16
2022-11-27T16:26:25.470Z,0.20
2022-11-27T16:27:27.459Z,0.21
2022-11-27T16:28:30.866Z,0.16
2022-11-27T16:29:32.796Z,0.16
2022-11-27T16:30:35.736Z,0.15
2022-11-27T16:31:39.863Z,0.16
2022-11-27T16:32:42.073Z,0.13
2022-11-27T16:33:43.950Z,0.14
2022-11-27T16:34:52.548Z,0.15
2022-11-27T16:35:55.765Z,0.18
2022-11-27T16:36:57.964Z,0.15
2022-11-27T16:37:59.877Z,0.16
2022-11-27T16:39:01.794Z,0.17
2022-11-27T16:40:05.546Z,0.22
2022-11-27T16:41:13.833Z,0.20
2022-11-27T16:42:15.910Z,0.18
2022-11-27T16:43:17.911Z,0.17
2022-11-27T16:44:20.292Z,0.14
2022-11-27T16:45:22.272Z,0.17
2022-11-27T16:46:28.644Z,0.16
2022-11-27T16:47:33.583Z,0.17
2022-11-27T16:48:37.041Z,0.18
2022-11-27T16:49:40.007Z,0.10
2022-11-27T16:50:41.990Z,0.19
2022-11-27T16:51:44.392Z,0.21
2022-11-27T16:52:53.942Z,0.17
2022-11-27T16:53:53.621Z,0.15
2022-11-27T16:54:55.838Z,0.16
2022-11-27T16:55:58.997Z,0.23
2022-11-27T16:57:03.007Z,0.16
2022-11-27T16:58:05.242Z,0.22
2022-11-27T16:59:10.676Z,0.15
2022-11-27T17:00:19.190Z,0.07
2022-11-27T17:02:39.952Z,0.10
2022-11-27T17:03:42.482Z,0.07
2022-11-27T17:04:44.422Z,0.08
2022-11-27T17:05:51.194Z,0.11
2022-11-27T17:06:50.174Z,0.13
2022-11-27T17:07:52.178Z,0.09
2022-11-27T17:08:58.988Z,0.10
2022-11-27T17:10:02.403Z,0.07
2022-11-27T17:11:11.256Z,0.15
2022-11-27T17:12:13.305Z,0.14
2022-11-27T17:13:15.624Z,0.15
2022-11-27T17:14:17.895Z,0.18
2022-11-27T17:15:19.764Z,0.17
2022-11-27T17:16:21.880Z,0.16
2022-11-27T17:17:23.874Z,0.22
2022-11-27T17:18:25.887Z,0.20
2022-11-27T17:19:28.383Z,0.17
2022-11-27T17:20:30.369Z,0.16
2022-11-27T17:21:34.789Z,0.17
2022-11-27T17:22:36.858Z,0.12
2022-11-27T17:23:38.747Z,0.16
2022-11-27T17:24:40.610Z,0.17
2022-11-27T17:25:42.472Z,0.20
2022-11-27T17:26:46.805Z,0.16
2022-11-27T17:27:48.814Z,0.17
2022-11-27T17:28:51.273Z,0.17
2022-11-27T17:29:53.755Z,0.18
2022-11-27T17:30:56.232Z,0.21
2022-11-27T17:31:58.251Z,0.07
2022-11-27T17:33:00.330Z,0.06
2022-11-27T17:34:03.796Z,-0.14
2022-11-27T17:35:06.906Z,-0.02
2022-11-27T17:36:10.910Z,0.02
2022-11-27T17:37:12.928Z,0.10
2022-11-27T17:38:14.929Z,-0.02
2022-11-27T17:39:17.149Z,-0.01
2022-11-27T17:40:19.262Z,-0.04
2022-11-27T17:41:22.043Z,-0.02
2022-11-27T17:42:23.940Z,0.04
2022-11-27T17:43:25.902Z,0.11
2022-11-27T17:44:27.841Z,0.05
2022-11-27T17:46:42.541Z,0.14
2022-11-27T17:47:44.407Z,0.05
2022-11-27T17:48:47.387Z,0.02
2022-11-27T17:49:49.319Z,0.05
2022-11-27T17:50:52.461Z,0.04
2022-11-27T17:51:54.695Z,0.06
2022-11-27T17:52:56.603Z,0.04
2022-11-27T17:54:00.431Z,0.05
2022-11-27T17:55:05.213Z,0.09
2022-11-27T17:56:11.189Z,0.14
2022-11-27T17:57:13.193Z,0.11
2022-11-27T17:58:15.145Z,0.14
2022-11-27T17:59:19.625Z,0.18
2022-11-27T18:00:21.625Z,0.17
2022-11-27T18:01:26.686Z,0.20
2022-11-27T18:02:31.249Z,0.20
2022-11-27T18:03:35.098Z,0.20
2022-11-27T18:04:37.104Z,0.21
2022-11-27T18:05:39.299Z,0.16
2022-11-27T18:06:41.323Z,0.20
2022-11-27T18:07:43.485Z,0.20
2022-11-27T18:08:47.575Z,0.20
2022-11-27T18:09:49.598Z,0.21
2022-11-27T18:10:51.574Z,0.18
2022-11-27T18:11:53.875Z,0.17
2022-11-27T18:12:56.031Z,0.15
2022-11-27T18:13:59.593Z,0.21
2022-11-27T18:15:01.773Z,0.13
2022-11-27T18:16:09.694Z,0.02
2022-11-27T18:17:12.274Z,0.14
2022-11-27T18:18:14.236Z,0.16
2022-11-27T18:19:16.371Z,0.17
2022-11-27T18:20:19.005Z,0.20
2022-11-27T18:21:24.374Z,0.20
2022-11-27T18:22:26.689Z,0.21
2022-11-27T18:23:28.847Z,0.24
2022-11-27T18:24:30.746Z,0.26
2022-11-27T18:25:32.645Z,0.30
2022-11-27T18:27:00.381Z,0.26
2022-11-27T18:27:38.746Z,0.24
2022-11-27T18:28:40.987Z,0.22
2022-11-27T18:29:43.405Z,0.14
2022-11-27T18:30:46.003Z,0.16
2022-11-27T18:31:47.940Z,0.15
2022-11-27T18:32:50.365Z,0.10
2022-11-27T18:33:54.769Z,0.02
2022-11-27T18:34:56.797Z,0.10
2022-11-27T18:36:00.436Z,0.07
2022-11-27T18:37:03.900Z,0.08
2022-11-27T18:38:05.777Z,0.10
2022-11-27T18:39:07.949Z,0.09
2022-11-27T18:40:11.758Z,0.08
2022-11-27T18:41:20.204Z,0.09
2022-11-27T18:42:22.215Z,0.15
2022-11-27T18:43:24.066Z,0.08
